sensor_id;sensor_type;location;lat;lon;timestamp;P1;durP1;ratioP1;P2;durP2;ratioP2
52180;SDS011;38158;53.338;6.514;2022-08-19T00:01:49;9.60;;;6.80;;
52180;SDS011;38158;53.338;6.514;2022-08-19T00:04:17;9.38;;;6.13;;
52180;SDS011;38158;53.338;6.514;2022-08-19T00:06:46;9.50;;;5.85;;
52180;SDS011;38158;53.338;6.514;2022-08-19T00:09:13;10.05;;;6.35;;
52180;SDS011;38158;53.338;6.514;2022-08-19T00:11:41;11.40;;;6.78;;
52180;SDS011;38158;53.338;6.514;2022-08-19T00:16:39;14.18;;;7.78;;
52180;SDS011;38158;53.338;6.514;2022-08-19T00:19:06;10.70;;;6.97;;
52180;SDS011;38158;53.338;6.514;2022-08-19T00:21:33;10.88;;;7.43;;
52180;SDS011;38158;53.338;6.514;2022-08-19T00:24:05;11.95;;;8.02;;
52180;SDS011;38158;53.338;6.514;2022-08-19T00:26:33;11.32;;;7.28;;
52180;SDS011;38158;53.338;6.514;2022-08-19T00:28:58;12.10;;;6.93;;
52180;SDS011;38158;53.338;6.514;2022-08-19T00:31:26;9.55;;;7.32;;
52180;SDS011;38158;53.338;6.514;2022-08-19T00:33:52;10.30;;;7.35;;
52180;SDS011;38158;53.338;6.514;2022-08-19T00:36:18;10.35;;;6.80;;
52180;SDS011;38158;53.338;6.514;2022-08-19T00:38:44;11.32;;;6.80;;
52180;SDS011;38158;53.338;6.514;2022-08-19T00:41:12;14.93;;;8.00;;
52180;SDS011;38158;53.338;6.514;2022-08-19T00:43:39;15.35;;;6.85;;
52180;SDS011;38158;53.338;6.514;2022-08-19T00:46:06;11.40;;;6.32;;
52180;SDS011;38158;53.338;6.514;2022-08-19T00:48:32;8.35;;;5.57;;
52180;SDS011;38158;53.338;6.514;2022-08-19T00:50:59;8.75;;;5.30;;
52180;SDS011;38158;53.338;6.514;2022-08-19T00:53:26;6.35;;;5.13;;
52180;SDS011;38158;53.338;6.514;2022-08-19T00:55:56;8.85;;;5.53;;
52180;SDS011;38158;53.338;6.514;2022-08-19T00:58:25;8.73;;;5.63;;
52180;SDS011;38158;53.338;6.514;2022-08-19T01:00:54;7.50;;;5.20;;
52180;SDS011;38158;53.338;6.514;2022-08-19T01:03:20;10.45;;;6.45;;
52180;SDS011;38158;53.338;6.514;2022-08-19T01:05:46;8.23;;;5.10;;
52180;SDS011;38158;53.338;6.514;2022-08-19T01:08:14;7.68;;;5.65;;
52180;SDS011;38158;53.338;6.514;2022-08-19T01:10:43;9.93;;;5.30;;
52180;SDS011;38158;53.338;6.514;2022-08-19T01:13:17;7.55;;;5.03;;
52180;SDS011;38158;53.338;6.514;2022-08-19T01:15:51;8.05;;;5.32;;
52180;SDS011;38158;53.338;6.514;2022-08-19T01:18:38;10.30;;;5.97;;
52180;SDS011;38158;53.338;6.514;2022-08-19T01:21:42;11.82;;;6.65;;
52180;SDS011;38158;53.338;6.514;2022-08-19T01:23:59;10.02;;;7.15;;
52180;SDS011;38158;53.338;6.514;2022-08-19T01:26:25;10.60;;;7.28;;
52180;SDS011;38158;53.338;6.514;2022-08-19T01:31:21;10.82;;;7.05;;
52180;SDS011;38158;53.338;6.514;2022-08-19T01:33:49;12.50;;;8.13;;
52180;SDS011;38158;53.338;6.514;2022-08-19T01:36:24;12.27;;;7.40;;
52180;SDS011;38158;53.338;6.514;2022-08-19T01:38:51;14.48;;;8.10;;
52180;SDS011;38158;53.338;6.514;2022-08-19T01:41:18;12.05;;;8.18;;
52180;SDS011;38158;53.338;6.514;2022-08-19T01:43:44;11.73;;;7.72;;
52180;SDS011;38158;53.338;6.514;2022-08-19T01:46:10;10.40;;;7.35;;
52180;SDS011;38158;53.338;6.514;2022-08-19T01:48:37;13.10;;;8.73;;
52180;SDS011;38158;53.338;6.514;2022-08-19T01:51:05;11.05;;;8.07;;
52180;SDS011;38158;53.338;6.514;2022-08-19T01:53:31;12.93;;;7.55;;
52180;SDS011;38158;53.338;6.514;2022-08-19T01:55:58;11.77;;;8.53;;
52180;SDS011;38158;53.338;6.514;2022-08-19T01:58:26;11.20;;;7.40;;
52180;SDS011;38158;53.338;6.514;2022-08-19T02:00:55;13.48;;;8.30;;
52180;SDS011;38158;53.338;6.514;2022-08-19T02:03:21;11.13;;;7.80;;
52180;SDS011;38158;53.338;6.514;2022-08-19T02:05:47;12.82;;;8.25;;
52180;SDS011;38158;53.338;6.514;2022-08-19T02:08:18;13.02;;;7.70;;
52180;SDS011;38158;53.338;6.514;2022-08-19T02:10:43;12.57;;;8.88;;
52180;SDS011;38158;53.338;6.514;2022-08-19T02:13:10;12.68;;;8.05;;
52180;SDS011;38158;53.338;6.514;2022-08-19T02:15:38;12.55;;;8.50;;
52180;SDS011;38158;53.338;6.514;2022-08-19T02:18:04;12.40;;;8.10;;
52180;SDS011;38158;53.338;6.514;2022-08-19T02:20:31;12.75;;;8.93;;
52180;SDS011;38158;53.338;6.514;2022-08-19T02:22:57;13.02;;;8.95;;
52180;SDS011;38158;53.338;6.514;2022-08-19T02:25:22;12.60;;;8.20;;
52180;SDS011;38158;53.338;6.514;2022-08-19T02:27:48;16.10;;;10.38;;
52180;SDS011;38158;53.338;6.514;2022-08-19T02:30:15;13.43;;;9.48;;
52180;SDS011;38158;53.338;6.514;2022-08-19T02:32:41;13.70;;;9.23;;
52180;SDS011;38158;53.338;6.514;2022-08-19T02:35:07;16.07;;;9.93;;
52180;SDS011;38158;53.338;6.514;2022-08-19T02:37:34;13.35;;;9.55;;
52180;SDS011;38158;53.338;6.514;2022-08-19T02:40:18;16.63;;;9.30;;
52180;SDS011;38158;53.338;6.514;2022-08-19T02:42:44;19.13;;;10.55;;
52180;SDS011;38158;53.338;6.514;2022-08-19T02:45:11;13.27;;;10.07;;
52180;SDS011;38158;53.338;6.514;2022-08-19T02:47:38;13.50;;;8.98;;
52180;SDS011;38158;53.338;6.514;2022-08-19T02:50:04;12.98;;;9.20;;
52180;SDS011;38158;53.338;6.514;2022-08-19T02:52:31;13.90;;;9.88;;
52180;SDS011;38158;53.338;6.514;2022-08-19T02:54:58;14.60;;;9.73;;
52180;SDS011;38158;53.338;6.514;2022-08-19T02:57:25;13.93;;;9.32;;
52180;SDS011;38158;53.338;6.514;2022-08-19T02:59:51;14.30;;;10.40;;
52180;SDS011;38158;53.338;6.514;2022-08-19T03:02:17;13.15;;;9.73;;
52180;SDS011;38158;53.338;6.514;2022-08-19T03:04:43;16.65;;;9.85;;
52180;SDS011;38158;53.338;6.514;2022-08-19T03:07:09;13.05;;;9.60;;
52180;SDS011;38158;53.338;6.514;2022-08-19T03:09:38;12.63;;;10.23;;
52180;SDS011;38158;53.338;6.514;2022-08-19T03:12:04;15.07;;;9.85;;
52180;SDS011;38158;53.338;6.514;2022-08-19T03:14:33;16.80;;;9.77;;
52180;SDS011;38158;53.338;6.514;2022-08-19T03:17:00;13.05;;;10.23;;
52180;SDS011;38158;53.338;6.514;2022-08-19T03:19:26;12.77;;;9.82;;
52180;SDS011;38158;53.338;6.514;2022-08-19T03:21:52;15.43;;;9.93;;
52180;SDS011;38158;53.338;6.514;2022-08-19T03:24:18;13.40;;;10.30;;
52180;SDS011;38158;53.338;6.514;2022-08-19T03:26:48;15.23;;;9.77;;
52180;SDS011;38158;53.338;6.514;2022-08-19T03:29:21;16.67;;;10.82;;
52180;SDS011;38158;53.338;6.514;2022-08-19T03:31:48;15.48;;;10.82;;
52180;SDS011;38158;53.338;6.514;2022-08-19T03:34:16;14.18;;;9.50;;
52180;SDS011;38158;53.338;6.514;2022-08-19T03:36:45;15.65;;;9.63;;
52180;SDS011;38158;53.338;6.514;2022-08-19T03:39:11;12.47;;;9.33;;
52180;SDS011;38158;53.338;6.514;2022-08-19T03:41:38;13.93;;;9.97;;
52180;SDS011;38158;53.338;6.514;2022-08-19T03:44:05;11.75;;;8.73;;
52180;SDS011;38158;53.338;6.514;2022-08-19T03:46:32;17.25;;;9.68;;
52180;SDS011;38158;53.338;6.514;2022-08-19T03:48:59;11.35;;;8.32;;
52180;SDS011;38158;53.338;6.514;2022-08-19T03:51:28;13.70;;;8.60;;
52180;SDS011;38158;53.338;6.514;2022-08-19T03:53:56;13.00;;;8.65;;
52180;SDS011;38158;53.338;6.514;2022-08-19T03:56:24;13.35;;;8.40;;
52180;SDS011;38158;53.338;6.514;2022-08-19T03:58:53;10.45;;;8.48;;
52180;SDS011;38158;53.338;6.514;2022-08-19T04:03:47;12.45;;;7.82;;
52180;SDS011;38158;53.338;6.514;2022-08-19T04:08:49;9.40;;;6.53;;
52180;SDS011;38158;53.338;6.514;2022-08-19T04:11:17;12.82;;;6.70;;
52180;SDS011;38158;53.338;6.514;2022-08-19T04:13:46;9.45;;;6.63;;
52180;SDS011;38158;53.338;6.514;2022-08-19T04:16:13;10.00;;;7.15;;
52180;SDS011;38158;53.338;6.514;2022-08-19T04:18:39;12.77;;;7.75;;
52180;SDS011;38158;53.338;6.514;2022-08-19T04:21:06;11.05;;;7.55;;
52180;SDS011;38158;53.338;6.514;2022-08-19T04:23:32;10.57;;;6.57;;
52180;SDS011;38158;53.338;6.514;2022-08-19T04:26:00;10.27;;;4.40;;
52180;SDS011;38158;53.338;6.514;2022-08-19T04:28:27;4.55;;;3.08;;
52180;SDS011;38158;53.338;6.514;2022-08-19T04:30:54;5.65;;;3.00;;
52180;SDS011;38158;53.338;6.514;2022-08-19T04:33:22;6.53;;;3.95;;
52180;SDS011;38158;53.338;6.514;2022-08-19T04:35:50;7.10;;;4.95;;
52180;SDS011;38158;53.338;6.514;2022-08-19T04:38:18;11.45;;;5.82;;
52180;SDS011;38158;53.338;6.514;2022-08-19T04:40:46;9.10;;;4.75;;
52180;SDS011;38158;53.338;6.514;2022-08-19T04:43:32;8.32;;;5.43;;
52180;SDS011;38158;53.338;6.514;2022-08-19T04:48:33;9.32;;;5.57;;
52180;SDS011;38158;53.338;6.514;2022-08-19T04:50:59;10.87;;;6.53;;
52180;SDS011;38158;53.338;6.514;2022-08-19T04:53:26;9.48;;;7.03;;
52180;SDS011;38158;53.338;6.514;2022-08-19T04:55:56;11.20;;;7.82;;
52180;SDS011;38158;53.338;6.514;2022-08-19T04:58:23;11.98;;;8.98;;
52180;SDS011;38158;53.338;6.514;2022-08-19T05:00:50;10.57;;;7.45;;
52180;SDS011;38158;53.338;6.514;2022-08-19T05:03:17;13.98;;;8.32;;
52180;SDS011;38158;53.338;6.514;2022-08-19T05:05:44;13.10;;;8.70;;
52180;SDS011;38158;53.338;6.514;2022-08-19T05:08:14;12.50;;;8.98;;
52180;SDS011;38158;53.338;6.514;2022-08-19T05:10:48;13.68;;;8.55;;
52180;SDS011;38158;53.338;6.514;2022-08-19T05:13:17;14.35;;;8.95;;
52180;SDS011;38158;53.338;6.514;2022-08-19T05:15:53;13.77;;;8.55;;
52180;SDS011;38158;53.338;6.514;2022-08-19T05:18:21;17.95;;;9.63;;
52180;SDS011;38158;53.338;6.514;2022-08-19T05:21:07;13.43;;;8.68;;
52180;SDS011;38158;53.338;6.514;2022-08-19T05:23:52;13.20;;;8.52;;
52180;SDS011;38158;53.338;6.514;2022-08-19T05:26:18;18.42;;;8.35;;
52180;SDS011;38158;53.338;6.514;2022-08-19T05:28:43;18.40;;;10.00;;
52180;SDS011;38158;53.338;6.514;2022-08-19T05:31:09;14.35;;;9.60;;
52180;SDS011;38158;53.338;6.514;2022-08-19T05:33:35;15.30;;;9.50;;
52180;SDS011;38158;53.338;6.514;2022-08-19T05:36:01;17.77;;;11.07;;
52180;SDS011;38158;53.338;6.514;2022-08-19T05:38:27;17.42;;;10.65;;
52180;SDS011;38158;53.338;6.514;2022-08-19T05:40:53;15.98;;;10.60;;
52180;SDS011;38158;53.338;6.514;2022-08-19T05:43:19;23.23;;;12.48;;
52180;SDS011;38158;53.338;6.514;2022-08-19T05:45:45;16.75;;;11.75;;
52180;SDS011;38158;53.338;6.514;2022-08-19T05:48:10;19.27;;;11.70;;
52180;SDS011;38158;53.338;6.514;2022-08-19T05:50:38;18.90;;;12.65;;
52180;SDS011;38158;53.338;6.514;2022-08-19T05:53:05;17.65;;;12.43;;
52180;SDS011;38158;53.338;6.514;2022-08-19T05:55:31;15.43;;;10.77;;
52180;SDS011;38158;53.338;6.514;2022-08-19T05:57:57;17.93;;;11.57;;
52180;SDS011;38158;53.338;6.514;2022-08-19T06:00:23;17.88;;;11.38;;
52180;SDS011;38158;53.338;6.514;2022-08-19T06:02:49;16.67;;;11.77;;
52180;SDS011;38158;53.338;6.514;2022-08-19T06:05:16;16.83;;;12.38;;
52180;SDS011;38158;53.338;6.514;2022-08-19T06:07:41;16.60;;;12.02;;
52180;SDS011;38158;53.338;6.514;2022-08-19T06:10:08;18.13;;;11.90;;
52180;SDS011;38158;53.338;6.514;2022-08-19T06:12:36;18.15;;;11.57;;
52180;SDS011;38158;53.338;6.514;2022-08-19T06:15:03;20.60;;;12.70;;
52180;SDS011;38158;53.338;6.514;2022-08-19T06:17:32;16.98;;;11.95;;
52180;SDS011;38158;53.338;6.514;2022-08-19T06:19:59;19.88;;;12.85;;
52180;SDS011;38158;53.338;6.514;2022-08-19T06:22:26;23.45;;;12.48;;
52180;SDS011;38158;53.338;6.514;2022-08-19T06:24:53;18.10;;;12.15;;
52180;SDS011;38158;53.338;6.514;2022-08-19T06:27:19;20.20;;;12.90;;
52180;SDS011;38158;53.338;6.514;2022-08-19T06:29:46;20.48;;;12.93;;
52180;SDS011;38158;53.338;6.514;2022-08-19T06:32:12;20.73;;;12.82;;
52180;SDS011;38158;53.338;6.514;2022-08-19T06:34:39;18.63;;;12.20;;
52180;SDS011;38158;53.338;6.514;2022-08-19T06:37:06;20.42;;;13.15;;
52180;SDS011;38158;53.338;6.514;2022-08-19T06:39:33;17.92;;;11.13;;
52180;SDS011;38158;53.338;6.514;2022-08-19T06:42:02;18.15;;;12.85;;
52180;SDS011;38158;53.338;6.514;2022-08-19T06:44:32;17.60;;;12.15;;
52180;SDS011;38158;53.338;6.514;2022-08-19T06:47:05;16.40;;;11.57;;
52180;SDS011;38158;53.338;6.514;2022-08-19T06:49:33;16.25;;;12.25;;
52180;SDS011;38158;53.338;6.514;2022-08-19T06:51:59;17.20;;;12.47;;
52180;SDS011;38158;53.338;6.514;2022-08-19T06:54:26;19.25;;;11.95;;
52180;SDS011;38158;53.338;6.514;2022-08-19T06:56:53;16.27;;;12.38;;
52180;SDS011;38158;53.338;6.514;2022-08-19T06:59:20;18.02;;;12.55;;
52180;SDS011;38158;53.338;6.514;2022-08-19T07:01:48;16.38;;;12.98;;
52180;SDS011;38158;53.338;6.514;2022-08-19T07:04:17;18.70;;;11.85;;
52180;SDS011;38158;53.338;6.514;2022-08-19T07:06:46;15.80;;;12.07;;
52180;SDS011;38158;53.338;6.514;2022-08-19T07:09:13;15.50;;;11.38;;
52180;SDS011;38158;53.338;6.514;2022-08-19T07:11:45;15.27;;;11.75;;
52180;SDS011;38158;53.338;6.514;2022-08-19T07:14:12;24.65;;;12.15;;
52180;SDS011;38158;53.338;6.514;2022-08-19T07:19:05;15.20;;;10.98;;
52180;SDS011;38158;53.338;6.514;2022-08-19T07:21:31;16.58;;;11.75;;
52180;SDS011;38158;53.338;6.514;2022-08-19T07:23:58;15.20;;;10.60;;
52180;SDS011;38158;53.338;6.514;2022-08-19T07:26:26;14.55;;;11.10;;
52180;SDS011;38158;53.338;6.514;2022-08-19T07:28:54;14.63;;;10.60;;
52180;SDS011;38158;53.338;6.514;2022-08-19T07:31:23;13.05;;;10.70;;
52180;SDS011;38158;53.338;6.514;2022-08-19T07:33:51;12.90;;;10.57;;
52180;SDS011;38158;53.338;6.514;2022-08-19T07:36:21;15.75;;;10.90;;
52180;SDS011;38158;53.338;6.514;2022-08-19T07:38:49;17.90;;;12.85;;
52180;SDS011;38158;53.338;6.514;2022-08-19T07:41:18;17.38;;;11.85;;
52180;SDS011;38158;53.338;6.514;2022-08-19T07:43:47;15.45;;;11.27;;
52180;SDS011;38158;53.338;6.514;2022-08-19T07:46:14;18.67;;;11.68;;
52180;SDS011;38158;53.338;6.514;2022-08-19T07:48:42;16.45;;;11.75;;
52180;SDS011;38158;53.338;6.514;2022-08-19T07:51:15;13.27;;;10.60;;
52180;SDS011;38158;53.338;6.514;2022-08-19T07:53:42;13.63;;;11.05;;
52180;SDS011;38158;53.338;6.514;2022-08-19T07:56:11;16.50;;;11.55;;
52180;SDS011;38158;53.338;6.514;2022-08-19T07:58:40;14.45;;;11.35;;
52180;SDS011;38158;53.338;6.514;2022-08-19T08:01:08;13.75;;;12.23;;
52180;SDS011;38158;53.338;6.514;2022-08-19T08:03:38;18.02;;;12.02;;
52180;SDS011;38158;53.338;6.514;2022-08-19T08:06:23;14.20;;;11.52;;
52180;SDS011;38158;53.338;6.514;2022-08-19T08:09:07;15.85;;;11.85;;
52180;SDS011;38158;53.338;6.514;2022-08-19T08:11:42;15.70;;;11.00;;
52180;SDS011;38158;53.338;6.514;2022-08-19T08:14:14;16.45;;;11.30;;
52180;SDS011;38158;53.338;6.514;2022-08-19T08:16:46;16.30;;;11.75;;
52180;SDS011;38158;53.338;6.514;2022-08-19T08:19:13;14.18;;;12.15;;
52180;SDS011;38158;53.338;6.514;2022-08-19T08:21:42;14.32;;;11.43;;
52180;SDS011;38158;53.338;6.514;2022-08-19T08:24:08;15.27;;;11.73;;
52180;SDS011;38158;53.338;6.514;2022-08-19T08:26:34;16.27;;;11.73;;
52180;SDS011;38158;53.338;6.514;2022-08-19T08:29:00;16.15;;;12.82;;
52180;SDS011;38158;53.338;6.514;2022-08-19T08:31:26;13.73;;;11.68;;
52180;SDS011;38158;53.338;6.514;2022-08-19T08:33:52;17.27;;;12.32;;
52180;SDS011;38158;53.338;6.514;2022-08-19T08:36:18;19.92;;;11.35;;
52180;SDS011;38158;53.338;6.514;2022-08-19T08:38:44;13.50;;;10.18;;
52180;SDS011;38158;53.338;6.514;2022-08-19T08:43:55;13.93;;;11.52;;
52180;SDS011;38158;53.338;6.514;2022-08-19T08:48:54;14.20;;;10.90;;
52180;SDS011;38158;53.338;6.514;2022-08-19T08:51:43;14.63;;;10.07;;
52180;SDS011;38158;53.338;6.514;2022-08-19T08:54:13;12.30;;;10.13;;
52180;SDS011;38158;53.338;6.514;2022-08-19T08:56:42;16.25;;;10.70;;
52180;SDS011;38158;53.338;6.514;2022-08-19T09:01:42;18.02;;;13.13;;
52180;SDS011;38158;53.338;6.514;2022-08-19T09:04:08;13.83;;;11.53;;
52180;SDS011;38158;53.338;6.514;2022-08-19T09:14:51;16.38;;;11.73;;
52180;SDS011;38158;53.338;6.514;2022-08-19T09:17:19;16.45;;;12.45;;
52180;SDS011;38158;53.338;6.514;2022-08-19T09:19:54;15.65;;;12.15;;
52180;SDS011;38158;53.338;6.514;2022-08-19T09:22:29;16.98;;;12.35;;
52180;SDS011;38158;53.338;6.514;2022-08-19T09:24:55;14.95;;;13.32;;
52180;SDS011;38158;53.338;6.514;2022-08-19T09:27:22;17.48;;;13.15;;
52180;SDS011;38158;53.338;6.514;2022-08-19T09:29:49;14.40;;;12.20;;
52180;SDS011;38158;53.338;6.514;2022-08-19T09:32:15;18.65;;;13.38;;
52180;SDS011;38158;53.338;6.514;2022-08-19T09:34:43;16.15;;;12.15;;
52180;SDS011;38158;53.338;6.514;2022-08-19T09:37:09;16.80;;;13.13;;
52180;SDS011;38158;53.338;6.514;2022-08-19T09:39:35;14.97;;;13.00;;
52180;SDS011;38158;53.338;6.514;2022-08-19T09:42:00;25.88;;;14.13;;
52180;SDS011;38158;53.338;6.514;2022-08-19T09:44:29;14.73;;;12.90;;
52180;SDS011;38158;53.338;6.514;2022-08-19T09:46:54;15.48;;;12.10;;
52180;SDS011;38158;53.338;6.514;2022-08-19T09:49:21;15.45;;;12.15;;
52180;SDS011;38158;53.338;6.514;2022-08-19T09:51:50;21.47;;;13.93;;
52180;SDS011;38158;53.338;6.514;2022-08-19T09:54:16;17.13;;;12.82;;
52180;SDS011;38158;53.338;6.514;2022-08-19T09:56:43;14.52;;;12.55;;
52180;SDS011;38158;53.338;6.514;2022-08-19T09:59:09;13.05;;;11.65;;
52180;SDS011;38158;53.338;6.514;2022-08-19T10:01:37;14.95;;;13.05;;
52180;SDS011;38158;53.338;6.514;2022-08-19T10:04:03;15.13;;;12.27;;
52180;SDS011;38158;53.338;6.514;2022-08-19T10:06:34;16.33;;;12.48;;
52180;SDS011;38158;53.338;6.514;2022-08-19T10:09:01;14.45;;;12.05;;
52180;SDS011;38158;53.338;6.514;2022-08-19T10:11:29;15.73;;;12.02;;
52180;SDS011;38158;53.338;6.514;2022-08-19T10:13:55;14.33;;;11.77;;
52180;SDS011;38158;53.338;6.514;2022-08-19T10:16:22;14.02;;;11.50;;
52180;SDS011;38158;53.338;6.514;2022-08-19T10:18:49;15.68;;;11.02;;
52180;SDS011;38158;53.338;6.514;2022-08-19T10:21:16;15.93;;;12.40;;
52180;SDS011;38158;53.338;6.514;2022-08-19T10:23:51;15.23;;;11.60;;
52180;SDS011;38158;53.338;6.514;2022-08-19T10:26:20;14.25;;;10.23;;
52180;SDS011;38158;53.338;6.514;2022-08-19T10:28:48;15.48;;;12.15;;
52180;SDS011;38158;53.338;6.514;2022-08-19T10:31:16;13.93;;;12.03;;
52180;SDS011;38158;53.338;6.514;2022-08-19T10:33:45;16.83;;;13.95;;
52180;SDS011;38158;53.338;6.514;2022-08-19T10:36:14;15.07;;;13.48;;
52180;SDS011;38158;53.338;6.514;2022-08-19T10:38:43;15.63;;;13.52;;
52180;SDS011;38158;53.338;6.514;2022-08-19T10:41:18;15.07;;;13.48;;
52180;SDS011;38158;53.338;6.514;2022-08-19T10:43:52;15.88;;;13.07;;
52180;SDS011;38158;53.338;6.514;2022-08-19T10:46:19;18.83;;;14.70;;
52180;SDS011;38158;53.338;6.514;2022-08-19T10:48:47;16.25;;;14.10;;
52180;SDS011;38158;53.338;6.514;2022-08-19T10:51:13;15.02;;;13.32;;
52180;SDS011;38158;53.338;6.514;2022-08-19T10:53:58;16.73;;;14.05;;
52180;SDS011;38158;53.338;6.514;2022-08-19T10:56:25;17.75;;;15.60;;
52180;SDS011;38158;53.338;6.514;2022-08-19T10:59:10;19.05;;;15.38;;
52180;SDS011;38158;53.338;6.514;2022-08-19T11:01:38;17.00;;;12.60;;
52180;SDS011;38158;53.338;6.514;2022-08-19T11:04:05;20.08;;;16.42;;
52180;SDS011;38158;53.338;6.514;2022-08-19T11:06:35;20.75;;;16.25;;
52180;SDS011;38158;53.338;6.514;2022-08-19T11:09:01;16.42;;;14.52;;
52180;SDS011;38158;53.338;6.514;2022-08-19T11:11:28;19.38;;;16.92;;
52180;SDS011;38158;53.338;6.514;2022-08-19T11:13:54;17.77;;;14.73;;
52180;SDS011;38158;53.338;6.514;2022-08-19T11:16:21;14.80;;;12.43;;
52180;SDS011;38158;53.338;6.514;2022-08-19T11:18:49;16.83;;;14.05;;
52180;SDS011;38158;53.338;6.514;2022-08-19T11:23:46;15.63;;;13.63;;
52180;SDS011;38158;53.338;6.514;2022-08-19T11:26:14;14.18;;;12.52;;
52180;SDS011;38158;53.338;6.514;2022-08-19T11:28:40;14.30;;;11.82;;
52180;SDS011;38158;53.338;6.514;2022-08-19T11:31:11;17.05;;;13.82;;
52180;SDS011;38158;53.338;6.514;2022-08-19T11:33:39;19.33;;;15.38;;
52180;SDS011;38158;53.338;6.514;2022-08-19T11:36:06;16.38;;;14.05;;
52180;SDS011;38158;53.338;6.514;2022-08-19T11:38:32;16.75;;;14.43;;
52180;SDS011;38158;53.338;6.514;2022-08-19T11:41:01;14.18;;;12.68;;
52180;SDS011;38158;53.338;6.514;2022-08-19T11:43:29;14.98;;;13.00;;
52180;SDS011;38158;53.338;6.514;2022-08-19T11:45:56;16.25;;;12.73;;
52180;SDS011;38158;53.338;6.514;2022-08-19T11:48:23;17.02;;;15.23;;
52180;SDS011;38158;53.338;6.514;2022-08-19T11:53:15;16.25;;;13.43;;
52180;SDS011;38158;53.338;6.514;2022-08-19T11:55:48;18.33;;;14.38;;
52180;SDS011;38158;53.338;6.514;2022-08-19T11:58:15;15.10;;;12.48;;
52180;SDS011;38158;53.338;6.514;2022-08-19T12:00:42;14.70;;;12.13;;
52180;SDS011;38158;53.338;6.514;2022-08-19T12:03:10;11.73;;;10.15;;
52180;SDS011;38158;53.338;6.514;2022-08-19T12:08:03;13.20;;;11.32;;
52180;SDS011;38158;53.338;6.514;2022-08-19T12:10:29;12.93;;;9.37;;
52180;SDS011;38158;53.338;6.514;2022-08-19T12:12:55;12.13;;;10.63;;
52180;SDS011;38158;53.338;6.514;2022-08-19T12:15:20;14.17;;;12.53;;
52180;SDS011;38158;53.338;6.514;2022-08-19T12:17:46;14.03;;;11.43;;
52180;SDS011;38158;53.338;6.514;2022-08-19T12:20:12;10.67;;;9.57;;
52180;SDS011;38158;53.338;6.514;2022-08-19T12:22:40;12.27;;;10.90;;
52180;SDS011;38158;53.338;6.514;2022-08-19T12:25:07;17.80;;;13.90;;
52180;SDS011;38158;53.338;6.514;2022-08-19T12:27:34;17.42;;;15.13;;
52180;SDS011;38158;53.338;6.514;2022-08-19T12:30:01;15.55;;;13.80;;
52180;SDS011;38158;53.338;6.514;2022-08-19T12:32:30;16.65;;;13.43;;
52180;SDS011;38158;53.338;6.514;2022-08-19T12:34:56;21.90;;;12.10;;
52180;SDS011;38158;53.338;6.514;2022-08-19T12:37:22;15.23;;;12.20;;
52180;SDS011;38158;53.338;6.514;2022-08-19T12:39:48;17.33;;;11.50;;
52180;SDS011;38158;53.338;6.514;2022-08-19T12:42:13;14.53;;;11.73;;
52180;SDS011;38158;53.338;6.514;2022-08-19T12:44:41;14.10;;;12.57;;
52180;SDS011;38158;53.338;6.514;2022-08-19T12:47:09;15.60;;;12.68;;
52180;SDS011;38158;53.338;6.514;2022-08-19T12:49:36;19.60;;;12.77;;
52180;SDS011;38158;53.338;6.514;2022-08-19T12:52:04;22.38;;;12.02;;
52180;SDS011;38158;53.338;6.514;2022-08-19T12:54:32;20.52;;;9.85;;
52180;SDS011;38158;53.338;6.514;2022-08-19T12:59:25;18.83;;;10.57;;
52180;SDS011;38158;53.338;6.514;2022-08-19T13:01:52;20.98;;;11.75;;
52180;SDS011;38158;53.338;6.514;2022-08-19T13:04:18;21.97;;;11.87;;
52180;SDS011;38158;53.338;6.514;2022-08-19T13:06:43;21.50;;;12.60;;
52180;SDS011;38158;53.338;6.514;2022-08-19T13:09:09;27.20;;;17.53;;
52180;SDS011;38158;53.338;6.514;2022-08-19T13:11:36;31.42;;;19.00;;
52180;SDS011;38158;53.338;6.514;2022-08-19T13:14:03;24.92;;;14.45;;
52180;SDS011;38158;53.338;6.514;2022-08-19T13:18:55;25.83;;;15.52;;
52180;SDS011;38158;53.338;6.514;2022-08-19T13:21:23;25.17;;;13.75;;
52180;SDS011;38158;53.338;6.514;2022-08-19T13:23:52;22.73;;;14.30;;
52180;SDS011;38158;53.338;6.514;2022-08-19T13:26:19;26.63;;;14.32;;
52180;SDS011;38158;53.338;6.514;2022-08-19T13:28:46;19.20;;;12.57;;
52180;SDS011;38158;53.338;6.514;2022-08-19T13:31:31;21.65;;;12.68;;
52180;SDS011;38158;53.338;6.514;2022-08-19T13:34:18;38.75;;;20.30;;
52180;SDS011;38158;53.338;6.514;2022-08-19T13:36:51;18.92;;;11.63;;
52180;SDS011;38158;53.338;6.514;2022-08-19T13:39:17;19.90;;;12.90;;
52180;SDS011;38158;53.338;6.514;2022-08-19T13:41:44;18.33;;;11.57;;
52180;SDS011;38158;53.338;6.514;2022-08-19T13:44:15;18.33;;;11.82;;
52180;SDS011;38158;53.338;6.514;2022-08-19T13:46:43;16.33;;;12.75;;
52180;SDS011;38158;53.338;6.514;2022-08-19T13:49:09;18.08;;;12.38;;
52180;SDS011;38158;53.338;6.514;2022-08-19T13:51:39;15.77;;;10.45;;
52180;SDS011;38158;53.338;6.514;2022-08-19T13:56:33;21.45;;;12.60;;
52180;SDS011;38158;53.338;6.514;2022-08-19T13:59:00;15.65;;;11.82;;
52180;SDS011;38158;53.338;6.514;2022-08-19T14:01:26;14.85;;;9.50;;
52180;SDS011;38158;53.338;6.514;2022-08-19T14:03:51;19.23;;;10.30;;
52180;SDS011;38158;53.338;6.514;2022-08-19T14:06:18;17.73;;;10.47;;
52180;SDS011;38158;53.338;6.514;2022-08-19T14:08:44;18.73;;;11.00;;
52180;SDS011;38158;53.338;6.514;2022-08-19T14:11:10;15.73;;;10.88;;
52180;SDS011;38158;53.338;6.514;2022-08-19T14:13:36;12.80;;;8.83;;
52180;SDS011;38158;53.338;6.514;2022-08-19T14:16:06;12.57;;;8.23;;
52180;SDS011;38158;53.338;6.514;2022-08-19T14:18:33;13.75;;;8.00;;
52180;SDS011;38158;53.338;6.514;2022-08-19T14:20:59;15.98;;;8.32;;
52180;SDS011;38158;53.338;6.514;2022-08-19T14:23:25;14.93;;;8.80;;
52180;SDS011;38158;53.338;6.514;2022-08-19T14:25:51;17.73;;;9.90;;
52180;SDS011;38158;53.338;6.514;2022-08-19T14:28:16;12.67;;;8.10;;
52180;SDS011;38158;53.338;6.514;2022-08-19T14:30:42;13.47;;;8.70;;
52180;SDS011;38158;53.338;6.514;2022-08-19T14:33:09;11.73;;;9.38;;
52180;SDS011;38158;53.338;6.514;2022-08-19T14:35:35;11.07;;;8.40;;
52180;SDS011;38158;53.338;6.514;2022-08-19T14:38:02;11.32;;;7.15;;
52180;SDS011;38158;53.338;6.514;2022-08-19T14:40:30;11.60;;;6.82;;
52180;SDS011;38158;53.338;6.514;2022-08-19T14:42:57;12.50;;;7.53;;
52180;SDS011;38158;53.338;6.514;2022-08-19T14:45:33;14.90;;;8.27;;
52180;SDS011;38158;53.338;6.514;2022-08-19T14:48:01;15.75;;;10.38;;
52180;SDS011;38158;53.338;6.514;2022-08-19T14:50:27;12.90;;;10.03;;
52180;SDS011;38158;53.338;6.514;2022-08-19T14:53:04;14.17;;;10.47;;
52180;SDS011;38158;53.338;6.514;2022-08-19T14:55:32;14.73;;;11.35;;
52180;SDS011;38158;53.338;6.514;2022-08-19T14:57:59;15.35;;;10.63;;
52180;SDS011;38158;53.338;6.514;2022-08-19T15:00:25;13.93;;;9.53;;
52180;SDS011;38158;53.338;6.514;2022-08-19T15:02:51;10.70;;;7.57;;
52180;SDS011;38158;53.338;6.514;2022-08-19T15:05:19;11.38;;;8.63;;
52180;SDS011;38158;53.338;6.514;2022-08-19T15:07:45;16.50;;;9.25;;
52180;SDS011;38158;53.338;6.514;2022-08-19T15:10:13;15.20;;;9.10;;
52180;SDS011;38158;53.338;6.514;2022-08-19T15:12:39;14.98;;;8.82;;
52180;SDS011;38158;53.338;6.514;2022-08-19T15:15:06;12.27;;;8.90;;
52180;SDS011;38158;53.338;6.514;2022-08-19T15:17:33;12.85;;;10.18;;
52180;SDS011;38158;53.338;6.514;2022-08-19T15:20:03;18.58;;;10.95;;